Time;durP1;ratioP1;P1;durP2;ratioP2;P2;SDS_P1;SDS_P2;PMS_P1;PMS_P2;Temp;Humidity;BMP_temperature;BMP_pressure;BME280_temperature;BME280_humidity;BME280_pressure;Samples;Min_cycle;Max_cycle;Signal;HPM_P1;HPM_P2
2022/11/20 00:01:17;;;;;;;6.33;3.80;;;6.80;35.10;;;;;;5024216;28;20722;-65
2022/11/20 00:03:45;;;;;;;8.03;4.60;;;6.70;35.10;;;;;;5027246;28;20551;-65
2022/11/20 00:06:14;;;;;;;6.07;4.00;;;6.70;35.20;;;;;;5024646;28;20562;-65
2022/11/20 00:08:42;;;;;;;7.37;4.10;;;6.70;35.20;;;;;;5023051;28;20936;-65
2022/11/20 00:11:10;;;;;;;7.50;4.73;;;6.60;35.20;;;;;;5022736;28;20570;-65
2022/11/20 00:13:37;;;;;;;8.07;4.63;;;6.60;35.30;;;;;;5025095;28;20465;-65
2022/11/20 00:16:06;;;;;;;7.63;4.57;;;6.60;35.40;;;;;;5022336;28;20558;-64
2022/11/20 00:18:35;;;;;;;8.17;4.13;;;6.50;35.30;;;;;;5020561;28;20546;-64
2022/11/20 00:21:03;;;;;;;8.80;4.20;;;6.50;35.50;;;;;;5025749;28;20479;-65
2022/11/20 00:23:31;;;;;;;10.90;4.40;;;6.50;35.70;;;;;;5025012;28;20941;-65
2022/11/20 00:25:58;;;;;;;7.20;4.43;;;6.50;35.60;;;;;;5021905;28;20510;-65
2022/11/20 00:28:24;;;;;;;7.47;4.37;;;6.40;35.80;;;;;;5025389;28;20583;-65
2022/11/20 00:30:51;;;;;;;8.00;4.13;;;6.40;35.70;;;;;;5025453;28;20499;-64
2022/11/20 00:33:18;;;;;;;10.53;4.80;;;6.40;35.90;;;;;;5024728;28;21090;-65
2022/11/20 00:35:46;;;;;;;6.97;4.27;;;6.40;35.90;;;;;;5021382;28;20467;-65
2022/11/20 00:38:13;;;;;;;15.50;7.93;;;6.40;35.90;;;;;;5025647;28;20502;-65
2022/11/20 00:40:40;;;;;;;10.40;5.03;;;6.40;36.10;;;;;;5022480;28;20495;-65
2022/11/20 00:43:07;;;;;;;7.30;3.83;;;6.40;36.00;;;;;;5021393;28;20545;-64
2022/11/20 00:45:34;;;;;;;7.80;4.33;;;6.40;36.70;;;;;;5023957;28;21027;-65
2022/11/20 00:48:01;;;;;;;7.20;4.23;;;6.40;36.20;;;;;;5019535;28;20566;-65
2022/11/20 00:50:28;;;;;;;9.70;5.23;;;6.40;36.20;;;;;;5017106;28;20574;-65
2022/11/20 00:52:56;;;;;;;10.07;4.57;;;6.40;36.20;;;;;;5018001;28;20459;-65
2022/11/20 00:55:23;;;;;;;9.50;5.47;;;6.50;36.10;;;;;;5021363;28;20912;-66
2022/11/20 00:57:49;;;;;;;8.30;4.00;;;6.50;36.00;;;;;;5016959;28;20549;-66
2022/11/20 01:00:17;;;;;;;11.33;4.50;;;6.50;35.90;;;;;;5020350;28;21019;-67
2022/11/20 01:02:43;;;;;;;8.97;4.80;;;6.40;35.90;;;;;;5021629;28;20538;-65
2022/11/20 01:05:10;;;;;;;8.33;4.60;;;6.40;36.00;;;;;;5021362;28;20463;-65
2022/11/20 01:07:37;;;;;;;7.00;4.43;;;6.40;36.10;;;;;;5014313;28;20462;-65
2022/11/20 01:10:07;;;;;;;8.47;4.90;;;6.40;36.10;;;;;;5018145;28;20566;-65
2022/11/20 01:12:34;;;;;;;8.60;3.93;;;6.40;36.10;;;;;;5019491;28;20541;-66
2022/11/20 01:15:01;;;;;;;8.10;4.20;;;6.40;36.10;;;;;;5020419;28;20559;-66
2022/11/20 01:17:28;;;;;;;7.30;4.10;;;6.40;36.00;;;;;;5018180;28;20462;-66
2022/11/20 01:19:54;;;;;;;6.63;4.13;;;6.40;36.00;;;;;;5022608;28;21097;-65
2022/11/20 01:22:22;;;;;;;6.80;4.30;;;6.40;36.10;;;;;;5022672;28;20586;-65
2022/11/20 01:24:48;;;;;;;8.10;4.57;;;6.40;36.10;;;;;;5021932;28;21038;-66
2022/11/20 01:27:17;;;;;;;9.67;4.60;;;6.30;36.40;;;;;;5017907;28;21243;-66
2022/11/20 01:29:43;;;;;;;7.23;4.33;;;6.30;36.20;;;;;;5022542;28;20587;-66
2022/11/20 01:32:10;;;;;;;9.17;4.20;;;6.30;36.10;;;;;;5020062;28;21314;-66
2022/11/20 01:34:37;;;;;;;8.60;4.23;;;6.30;36.10;;;;;;5021173;28;20495;-65
2022/11/20 01:37:04;;;;;;;10.20;3.87;;;6.30;36.20;;;;;;5013173;28;20554;-65
2022/11/20 01:39:31;;;;;;;8.27;4.13;;;6.20;36.10;;;;;;5016514;28;20487;-66
2022/11/20 01:44:51;;;;;;;8.70;5.03;;;6.20;36.20;;;;;;5019296;28;20453;-65
2022/11/20 01:47:23;;;;;;;13.47;4.33;;;6.20;36.40;;;;;;5022498;28;20518;-65
2022/11/20 01:49:56;;;;;;;9.73;5.20;;;6.20;36.30;;;;;;5014552;28;20567;-65
2022/11/20 01:52:28;;;;;;;6.63;3.73;;;6.10;36.50;;;;;;5017919;28;20542;-65
2022/11/20 01:54:59;;;;;;;7.03;3.67;;;6.20;36.40;;;;;;5022817;28;20609;-65
2022/11/20 01:57:29;;;;;;;7.07;3.97;;;6.20;36.30;;;;;;5022629;28;20462;-65
2022/11/20 02:00:02;;;;;;;8.23;4.30;;;6.10;36.30;;;;;;5022200;28;20553;-65
2022/11/20 02:02:29;;;;;;;7.50;3.80;;;6.20;36.40;;;;;;5020981;28;20606;-66
2022/11/20 02:05:01;;;;;;;6.77;4.10;;;6.10;36.30;;;;;;5018247;28;20554;-66
2022/11/20 02:07:29;;;;;;;8.10;4.10;;;6.10;36.30;;;;;;5020198;28;20546;-66
2022/11/20 02:09:56;;;;;;;9.60;4.50;;;6.10;36.30;;;;;;5024447;28;20565;-66
2022/11/20 02:15:10;;;;;;;6.87;4.30;;;6.10;36.40;;;;;;5029042;28;20473;-65
2022/11/20 02:17:36;;;;;;;9.90;4.73;;;6.00;36.30;;;;;;5023576;28;20538;-66
2022/11/20 02:20:04;;;;;;;7.47;4.00;;;6.00;36.30;;;;;;5026734;28;20561;-65
2022/11/20 02:22:37;;;;;;;7.40;4.23;;;6.00;36.30;;;;;;5023977;28;20459;-65
2022/11/20 02:25:07;;;;;;;7.50;4.20;;;6.00;36.40;;;;;;5029389;28;20490;-65
2022/11/20 02:27:35;;;;;;;7.77;4.90;;;6.00;36.40;;;;;;5025089;28;20462;-66
2022/11/20 02:30:04;;;;;;;9.03;4.60;;;6.10;36.50;;;;;;5027455;28;20573;-66
2022/11/20 02:32:32;;;;;;;6.97;4.33;;;6.10;36.40;;;;;;5027160;28;20490;-65
2022/11/20 02:35:07;;;;;;;9.93;4.50;;;6.10;36.40;;;;;;5024136;28;20547;-66
2022/11/20 02:37:36;;;;;;;7.70;4.13;;;6.20;36.30;;;;;;5023152;28;20486;-65
2022/11/20 02:40:05;;;;;;;7.30;3.90;;;6.20;36.20;;;;;;5026226;28;21062;-65
2022/11/20 02:42:32;;;;;;;6.60;3.97;;;6.20;36.10;;;;;;5027423;28;20553;-65
2022/11/20 02:44:59;;;;;;;6.53;4.10;;;6.20;36.00;;;;;;5027426;28;20583;-65
2022/11/20 02:47:26;;;;;;;9.00;4.67;;;6.30;36.00;;;;;;5028581;28;20546;-65
2022/11/20 02:49:53;;;;;;;8.43;4.10;;;6.30;35.90;;;;;;5027649;28;20652;-65
2022/11/20 02:52:20;;;;;;;8.00;4.40;;;6.30;35.80;;;;;;5027310;28;20554;-65
2022/11/20 02:54:47;;;;;;;6.30;3.67;;;6.30;35.70;;;;;;5025921;28;20546;-65
2022/11/20 02:57:15;;;;;;;7.97;3.50;;;6.30;35.60;;;;;;5026055;28;20542;-66
2022/11/20 02:59:42;;;;;;;10.23;4.60;;;6.30;35.50;;;;;;5026059;28;20570;-65
2022/11/20 03:02:09;;;;;;;9.00;4.20;;;6.30;35.40;;;;;;5028819;28;20576;-66
2022/11/20 03:04:36;;;;;;;7.50;4.10;;;6.20;35.30;;;;;;5026092;28;20498;-66
2022/11/20 03:07:03;;;;;;;7.00;4.57;;;6.20;35.30;;;;;;5023064;28;20557;-66
2022/11/20 03:09:29;;;;;;;9.50;4.63;;;6.20;35.30;;;;;;5027880;28;20904;-64
2022/11/20 03:11:56;;;;;;;7.63;4.27;;;6.20;35.40;;;;;;5026532;28;20458;-65
2022/11/20 03:14:25;;;;;;;8.80;4.30;;;6.20;35.40;;;;;;5027810;28;20455;-65
2022/11/20 03:16:52;;;;;;;7.50;3.87;;;6.10;35.50;;;;;;5027360;28;20459;-66
2022/11/20 03:19:19;;;;;;;8.87;4.00;;;6.10;35.60;;;;;;5026200;28;20529;-65
2022/11/20 03:21:45;;;;;;;9.20;5.30;;;6.10;35.80;;;;;;5020899;28;20546;-65
2022/11/20 03:24:13;;;;;;;7.03;4.40;;;6.10;35.90;;;;;;5026353;28;20551;-65
2022/11/20 03:26:41;;;;;;;7.57;4.70;;;6.10;35.80;;;;;;5020613;28;20561;-65
2022/11/20 03:29:07;;;;;;;8.00;4.60;;;6.10;35.80;;;;;;5024004;28;20531;-64
2022/11/20 03:31:40;;;;;;;8.10;4.60;;;6.10;35.90;;;;;;5026621;28;20850;-64
2022/11/20 03:34:07;;;;;;;8.83;5.07;;;6.00;35.90;;;;;;5026644;28;20471;-64
2022/11/20 03:36:35;;;;;;;6.93;4.00;;;6.00;35.90;;;;;;5025770;28;20553;-64
2022/11/20 03:39:02;;;;;;;9.60;5.53;;;5.90;35.90;;;;;;5023930;28;20502;-65
2022/11/20 03:41:31;;;;;;;6.87;4.00;;;5.90;36.20;;;;;;5026574;28;20509;-65
2022/11/20 03:43:59;;;;;;;7.93;4.50;;;5.80;36.30;;;;;;5026078;28;20534;-65
2022/11/20 03:46:27;;;;;;;11.37;5.63;;;5.80;36.40;;;;;;5025535;28;20487;-66
2022/11/20 03:48:56;;;;;;;9.17;4.60;;;5.80;36.60;;;;;;5026651;28;20926;-65
2022/11/20 03:51:26;;;;;;;8.40;4.83;;;5.80;36.60;;;;;;5026699;28;20547;-65
2022/11/20 03:53:55;;;;;;;7.60;4.63;;;5.80;36.70;;;;;;5027145;28;21155;-65
2022/11/20 03:56:25;;;;;;;8.40;5.60;;;5.80;36.80;;;;;;5027046;28;20538;-65
2022/11/20 03:58:52;;;;;;;9.73;5.33;;;5.80;36.90;;;;;;5027649;28;20538;-63
2022/11/20 04:01:21;;;;;;;9.17;5.53;;;5.80;36.80;;;;;;5020334;28;20478;-65
2022/11/20 04:03:48;;;;;;;8.83;5.10;;;5.80;36.90;;;;;;5022252;28;20540;-65
2022/11/20 04:06:18;;;;;;;8.53;5.43;;;5.80;37.00;;;;;;5024238;28;20537;-65
2022/11/20 04:08:45;;;;;;;8.50;5.90;;;5.80;37.00;;;;;;5026248;28;20478;-64
2022/11/20 04:11:15;;;;;;;8.23;4.30;;;5.70;37.10;;;;;;5027052;28;20517;-66
2022/11/20 04:13:43;;;;;;;9.63;5.30;;;5.70;37.20;;;;;;5025820;28;20855;-65
2022/11/20 04:16:11;;;;;;;10.40;5.63;;;5.70;37.80;;;;;;5025567;28;20525;-65
2022/11/20 04:18:38;;;;;;;8.53;5.20;;;5.70;37.30;;;;;;5023843;28;20466;-66
2022/11/20 04:21:06;;;;;;;10.23;5.73;;;5.70;37.80;;;;;;5026703;28;20601;-65
2022/11/20 04:23:34;;;;;;;8.00;4.70;;;5.80;37.20;;;;;;5027405;28;20550;-65
2022/11/20 04:26:05;;;;;;;9.17;5.80;;;5.80;37.20;;;;;;5026448;28;20465;-64
2022/11/20 04:28:32;;;;;;;9.33;5.70;;;5.80;37.30;;;;;;5026015;28;20490;-65
2022/11/20 04:31:06;;;;;;;8.67;5.63;;;5.80;37.00;;;;;;5022937;28;20605;-66
2022/11/20 04:33:34;;;;;;;8.87;5.37;;;5.80;37.10;;;;;;5025428;28;20537;-65
2022/11/20 04:36:03;;;;;;;12.20;5.80;;;5.80;36.90;;;;;;5025964;28;21071;-65
2022/11/20 04:38:30;;;;;;;8.87;5.37;;;5.80;37.10;;;;;;5024658;28;20557;-64
2022/11/20 04:41:00;;;;;;;9.17;5.50;;;5.90;37.00;;;;;;5026173;28;20486;-65
2022/11/20 04:43:27;;;;;;;10.57;6.40;;;5.80;37.00;;;;;;5024596;28;20463;-65
2022/11/20 04:45:54;;;;;;;10.77;6.67;;;5.90;37.10;;;;;;5026606;28;20554;-65
2022/11/20 04:48:21;;;;;;;9.07;6.17;;;5.90;37.10;;;;;;5026085;28;20471;-65
2022/11/20 04:50:48;;;;;;;9.80;6.30;;;5.90;37.20;;;;;;5025802;28;20487;-65
2022/11/20 04:53:15;;;;;;;9.80;6.73;;;5.90;37.20;;;;;;5025600;28;20562;-66
2022/11/20 04:55:42;;;;;;;10.87;7.40;;;5.90;37.10;;;;;;5025519;28;20463;-64
2022/11/20 04:58:10;;;;;;;10.93;6.67;;;5.90;37.10;;;;;;5023566;28;20483;-66
2022/11/20 05:00:37;;;;;;;11.20;7.23;;;5.90;37.20;;;;;;5024676;28;20578;-66
2022/11/20 05:03:04;;;;;;;11.10;6.90;;;5.90;37.30;;;;;;5026498;28;20546;-65
2022/11/20 05:05:31;;;;;;;10.70;7.40;;;5.90;37.20;;;;;;5027828;28;20546;-65
2022/11/20 05:07:58;;;;;;;10.50;7.57;;;6.00;37.10;;;;;;5020454;28;20890;-65
2022/11/20 05:10:25;;;;;;;10.77;7.90;;;6.00;37.10;;;;;;5017939;28;20491;-64
2022/11/20 05:12:52;;;;;;;13.10;8.57;;;5.90;37.10;;;;;;5025699;28;20470;-65
2022/11/20 05:15:21;;;;;;;14.47;8.23;;;6.00;37.20;;;;;;5020653;28;20550;-65
2022/11/20 05:17:48;;;;;;;12.00;8.43;;;6.00;37.30;;;;;;5024113;28;20557;-65
2022/11/20 05:20:16;;;;;;;12.43;8.13;;;6.00;37.20;;;;;;5020596;28;20487;-66
2022/11/20 05:22:43;;;;;;;11.30;7.80;;;6.00;37.20;;;;;;5026208;28;21182;-65
2022/11/20 05:25:10;;;;;;;12.53;8.53;;;6.00;37.30;;;;;;5025411;28;20485;-64
2022/11/20 05:27:37;;;;;;;11.00;7.87;;;6.00;37.20;;;;;;5024653;28;20987;-65
2022/11/20 05:30:04;;;;;;;11.00;7.60;;;6.00;37.10;;;;;;5025134;28;20959;-65
2022/11/20 05:32:33;;;;;;;10.43;7.67;;;6.10;37.20;;;;;;5024800;28;20565;-65
2022/11/20 05:35:00;;;;;;;14.30;9.20;;;6.10;37.20;;;;;;5024016;28;20916;-65
2022/11/20 05:37:26;;;;;;;13.13;8.90;;;6.00;37.20;;;;;;5024882;28;20494;-64
2022/11/20 05:39:53;;;;;;;13.77;9.10;;;6.10;37.30;;;;;;5025801;28;20565;-65
2022/11/20 05:42:32;;;;;;;12.07;8.20;;;6.00;37.30;;;;;;5024243;28;20465;-65
2022/11/20 05:44:59;;;;;;;11.17;7.60;;;6.00;37.30;;;;;;5022670;28;20894;-65
2022/11/20 05:47:26;;;;;;;11.03;7.90;;;6.00;37.40;;;;;;5023677;28;20545;-65
2022/11/20 05:49:55;;;;;;;12.50;8.87;;;6.00;37.40;;;;;;5025137;28;20858;-65
2022/11/20 05:52:22;;;;;;;10.87;7.60;;;6.00;37.40;;;;;;5026115;28;20549;-65
2022/11/20 05:54:49;;;;;;;12.33;7.87;;;6.00;37.60;;;;;;5024256;28;20549;-66
2022/11/20 05:57:16;;;;;;;13.30;8.87;;;6.00;37.60;;;;;;5019922;28;20469;-65
2022/11/20 05:59:43;;;;;;;11.23;8.10;;;6.00;37.70;;;;;;5025464;28;20590;-65
2022/11/20 06:02:10;;;;;;;13.13;8.73;;;6.00;37.70;;;;;;5025178;28;20583;-65
2022/11/20 06:04:36;;;;;;;13.00;7.40;;;5.90;37.90;;;;;;5024289;28;20930;-65
2022/11/20 06:07:06;;;;;;;13.40;8.37;;;5.90;38.10;;;;;;5022868;28;20542;-65
2022/11/20 06:09:33;;;;;;;13.07;8.23;;;5.90;38.10;;;;;;5025289;28;20571;-65
2022/11/20 06:12:00;;;;;;;9.50;6.83;;;5.90;38.30;;;;;;5023706;28;20901;-66
2022/11/20 06:14:27;;;;;;;12.40;7.60;;;5.90;38.20;;;;;;5022324;28;20900;-65
2022/11/20 06:16:54;;;;;;;12.40;7.57;;;5.80;38.00;;;;;;5024410;28;20561;-65
2022/11/20 06:19:20;;;;;;;11.20;7.33;;;5.80;38.20;;;;;;5026138;28;20584;-65
2022/11/20 06:21:49;;;;;;;10.93;7.27;;;5.80;38.30;;;;;;5022602;28;20597;-66
2022/11/20 06:24:18;;;;;;;11.17;7.10;;;5.80;38.30;;;;;;5025204;28;20462;-66
2022/11/20 06:26:45;;;;;;;13.40;8.07;;;5.80;38.30;;;;;;5018202;28;21032;-65
2022/11/20 06:29:12;;;;;;;10.00;7.17;;;5.80;38.30;;;;;;5023678;28;20963;-65
2022/11/20 06:31:39;;;;;;;10.30;6.97;;;5.90;38.30;;;;;;5020174;28;20569;-65
2022/11/20 06:34:07;;;;;;;9.80;6.10;;;5.90;38.20;;;;;;5024950;28;20541;-66
2022/11/20 06:36:34;;;;;;;8.30;5.37;;;5.90;38.10;;;;;;5024590;28;20550;-65
2022/11/20 06:39:01;;;;;;;12.37;6.40;;;5.90;38.70;;;;;;5022801;28;20555;-65
2022/11/20 06:41:29;;;;;;;11.63;6.67;;;6.00;38.20;;;;;;5023761;28;20585;-65
2022/11/20 06:43:56;;;;;;;16.90;7.07;;;5.90;38.10;;;;;;5020303;28;20539;-65
2022/11/20 06:46:23;;;;;;;9.93;5.80;;;6.00;37.90;;;;;;5021789;28;20457;-65
2022/11/20 06:48:51;;;;;;;13.40;7.63;;;6.10;38.00;;;;;;5024934;28;20459;-65
2022/11/20 06:51:18;;;;;;;9.90;5.87;;;6.10;37.90;;;;;;5023721;28;20491;-65
2022/11/20 06:53:44;;;;;;;9.10;6.20;;;6.10;37.70;;;;;;5024448;28;20463;-66
2022/11/20 06:56:11;;;;;;;8.30;5.50;;;6.10;37.60;;;;;;5025032;28;20459;-65
2022/11/20 06:58:39;;;;;;;9.87;6.60;;;6.20;37.70;;;;;;5027066;28;20550;-65
2022/11/20 07:01:09;;;;;;;8.07;5.53;;;6.20;37.60;;;;;;5026392;28;21089;-65
2022/11/20 07:03:36;;;;;;;8.53;4.97;;;6.20;37.30;;;;;;5027498;28;20889;-65
2022/11/20 07:06:04;;;;;;;10.80;6.07;;;6.20;37.20;;;;;;5027882;28;20546;-66
2022/11/20 07:08:31;;;;;;;9.60;5.70;;;6.20;36.90;;;;;;5028084;28;20546;-64
2022/11/20 07:10:59;;;;;;;12.07;6.20;;;6.20;37.00;;;;;;5026152;28;20565;-65
2022/11/20 07:13:26;;;;;;;7.47;4.47;;;6.20;37.00;;;;;;5028258;28;20463;-65
2022/11/20 07:15:54;;;;;;;9.70;5.40;;;6.30;36.70;;;;;;5026753;28;20530;-65
2022/11/20 07:18:22;;;;;;;11.63;6.10;;;6.30;36.80;;;;;;5028807;28;20490;-65
2022/11/20 07:20:49;;;;;;;9.77;5.87;;;6.30;36.60;;;;;;5027687;28;20506;-66
2022/11/20 07:23:15;;;;;;;11.10;5.53;;;6.30;36.80;;;;;;5027863;28;20459;-65
2022/11/20 07:25:42;;;;;;;10.00;5.77;;;6.30;36.70;;;;;;5025460;28;20561;-65
2022/11/20 07:28:10;;;;;;;8.50;5.50;;;6.30;36.70;;;;;;5028933;28;20467;-65
2022/11/20 07:30:37;;;;;;;9.90;5.50;;;6.30;36.60;;;;;;5026364;28;20571;-65
2022/11/20 07:33:06;;;;;;;10.57;5.67;;;6.40;36.80;;;;;;5027568;28;21017;-65
2022/11/20 07:35:33;;;;;;;9.57;5.87;;;6.40;36.90;;;;;;5027184;28;20466;-65
2022/11/20 07:38:00;;;;;;;9.60;5.20;;;6.40;36.80;;;;;;5026119;28;20465;-64
2022/11/20 07:40:27;;;;;;;8.23;4.80;;;6.50;36.80;;;;;;5024005;28;20576;-66
2022/11/20 07:42:55;;;;;;;9.00;5.20;;;6.50;36.30;;;;;;5027237;28;20468;-65
2022/11/20 07:45:24;;;;;;;7.93;5.67;;;6.60;35.90;;;;;;5025968;28;20461;-66
2022/11/20 07:47:51;;;;;;;10.33;5.17;;;6.70;35.70;;;;;;5024481;28;20558;-65
2022/11/20 07:50:20;;;;;;;7.87;4.73;;;6.80;35.30;;;;;;5021425;28;20595;-66
2022/11/20 07:52:48;;;;;;;8.27;4.77;;;6.90;34.80;;;;;;5025864;28;20463;-66
2022/11/20 07:55:15;;;;;;;6.73;4.50;;;7.00;34.70;;;;;;5024244;28;20470;-66
2022/11/20 07:57:42;;;;;;;10.43;4.50;;;7.10;34.50;;;;;;5028299;28;20831;-66
2022/11/20 08:00:11;;;;;;;7.87;4.77;;;7.30;34.00;;;;;;5021974;28;20574;-65
2022/11/20 08:02:39;;;;;;;8.93;4.43;;;7.40;33.70;;;;;;5016970;28;20459;-66
2022/11/20 08:05:07;;;;;;;6.93;4.10;;;7.50;33.60;;;;;;5020080;28;21407;-67
2022/11/20 08:07:38;;;;;;;7.67;4.87;;;7.70;33.70;;;;;;5025186;28;20467;-65
2022/11/20 08:10:06;;;;;;;7.50;4.43;;;8.10;33.90;;;;;;5016290;28;20482;-66
2022/11/20 08:15:17;;;;;;;8.10;4.60;;;8.50;30.20;;;;;;5015707;28;20577;-66
2022/11/20 08:17:44;;;;;;;7.30;4.73;;;8.40;29.90;;;;;;5021524;28;20458;-67
2022/11/20 08:20:12;;;;;;;8.80;4.47;;;8.40;29.80;;;;;;5021133;28;20558;-66
2022/11/20 08:22:40;;;;;;;8.90;4.23;;;8.20;30.10;;;;;;5015622;28;20956;-66
2022/11/20 08:25:08;;;;;;;7.20;4.10;;;8.20;29.80;;;;;;5021136;28;20499;-66
2022/11/20 08:27:34;;;;;;;8.80;4.23;;;8.10;30.40;;;;;;5022741;28;20462;-67
2022/11/20 08:30:01;;;;;;;7.40;3.93;;;8.00;30.50;;;;;;5021277;28;20526;-67
2022/11/20 08:32:28;;;;;;;6.50;3.70;;;7.90;30.90;;;;;;5024644;28;20581;-67
2022/11/20 08:34:55;;;;;;;7.57;3.90;;;7.80;31.20;;;;;;5023867;28;20570;-67
2022/11/20 08:37:22;;;;;;;7.40;3.93;;;7.70;31.40;;;;;;5020778;28;20539;-66
2022/11/20 08:39:50;;;;;;;7.20;4.30;;;7.70;31.50;;;;;;5024002;28;21028;-66
2022/11/20 08:42:17;;;;;;;6.40;3.80;;;7.60;31.60;;;;;;5025338;28;20581;-67
2022/11/20 08:44:44;;;;;;;8.43;4.47;;;7.50;31.80;;;;;;5023427;28;20907;-68
2022/11/20 08:47:10;;;;;;;8.73;4.70;;;7.50;32.20;;;;;;5024920;28;20491;-67
2022/11/20 08:49:37;;;;;;;8.63;4.47;;;7.40;32.50;;;;;;5020099;28;20590;-67
2022/11/20 08:52:05;;;;;;;7.83;4.87;;;7.40;32.90;;;;;;5021307;28;20489;-67
2022/11/20 08:54:32;;;;;;;8.67;5.47;;;7.30;33.30;;;;;;5021322;28;22359;-67
2022/11/20 08:57:00;;;;;;;8.27;4.90;;;7.30;33.90;;;;;;5018205;28;20529;-68
2022/11/20 08:59:27;;;;;;;9.17;5.97;;;7.30;33.70;;;;;;5015232;28;20519;-68
2022/11/20 09:01:54;;;;;;;7.40;4.30;;;7.30;33.90;;;;;;5022151;28;20504;-68
2022/11/20 09:04:21;;;;;;;7.07;4.53;;;7.40;33.70;;;;;;5023495;28;20546;-68
2022/11/20 09:06:50;;;;;;;7.70;4.00;;;7.40;33.60;;;;;;5022269;28;20459;-68
2022/11/20 09:09:18;;;;;;;8.00;4.10;;;7.40;33.80;;;;;;5024246;28;20877;-67
2022/11/20 09:11:45;;;;;;;7.53;4.47;;;7.40;33.60;;;;;;5024192;28;20479;-67
2022/11/20 09:14:13;;;;;;;7.83;4.83;;;7.50;33.50;;;;;;5025075;28;20466;-67
2022/11/20 09:16:40;;;;;;;9.90;5.70;;;7.50;33.70;;;;;;5025262;28;20828;-67
2022/11/20 09:19:07;;;;;;;6.57;3.10;;;7.50;33.90;;;;;;5025635;28;20572;-68
2022/11/20 09:21:34;;;;;;;6.97;3.10;;;7.60;33.70;;;;;;5024446;28;20877;-67
2022/11/20 09:24:00;;;;;;;5.40;2.57;;;7.70;33.60;;;;;;5023412;28;20549;-68
2022/11/20 09:26:27;;;;;;;5.87;2.80;;;7.80;33.10;;;;;;5025271;28;20463;-68
2022/11/20 09:28:55;;;;;;;5.27;2.63;;;7.90;32.90;;;;;;5018927;28;21190;-67
2022/11/20 09:31:25;;;;;;;5.17;2.63;;;8.00;32.20;;;;;;5023309;28;21087;-67
2022/11/20 09:33:53;;;;;;;5.80;2.77;;;8.10;31.80;;;;;;5019154;28;20459;-67
2022/11/20 09:36:20;;;;;;;7.33;4.13;;;8.20;31.80;;;;;;5025695;28;20975;-68
2022/11/20 09:38:47;;;;;;;5.93;2.50;;;8.20;31.80;;;;;;5023842;28;20541;-67
2022/11/20 09:41:33;;;;;;;10.10;5.43;;;8.10;31.50;;;;;;5022480;28;20581;-67
2022/11/20 09:44:09;;;;;;;4.70;2.20;;;8.10;32.00;;;;;;5024361;28;20549;-68
2022/11/20 09:46:48;;;;;;;4.77;2.47;;;8.00;31.90;;;;;;5024959;28;20550;-68
2022/11/20 09:49:28;;;;;;;6.23;3.23;;;8.00;31.90;;;;;;5024863;28;20532;-68
2022/11/20 09:52:00;;;;;;;7.00;3.57;;;8.00;32.10;;;;;;5023162;28;20570;-67
2022/11/20 09:54:31;;;;;;;6.20;3.30;;;8.00;32.20;;;;;;5024001;28;20724;-67
2022/11/20 09:57:02;;;;;;;7.53;3.47;;;7.90;32.30;;;;;;5025827;28;20466;-67
2022/11/20 09:59:38;;;;;;;6.00;3.00;;;7.90;32.60;;;;;;5025701;28;20595;-68
2022/11/20 10:02:17;;;;;;;5.87;3.07;;;7.90;32.80;;;;;;5024354;28;20569;-67
2022/11/20 10:04:48;;;;;;;6.80;3.30;;;7.90;33.00;;;;;;5024314;28;20451;-68
2022/11/20 10:07:20;;;;;;;6.37;3.63;;;7.90;33.10;;;;;;5023198;28;20879;-67
2022/11/20 10:09:53;;;;;;;6.40;3.30;;;7.90;33.00;;;;;;5013324;28;20538;-67
2022/11/20 10:12:28;;;;;;;5.83;2.90;;;7.90;33.20;;;;;;5022577;28;20520;-68
2022/11/20 10:15:08;;;;;;;6.13;3.70;;;8.00;32.90;;;;;;5021472;28;20544;-68
2022/11/20 10:17:59;;;;;;;5.50;2.73;;;8.00;33.00;;;;;;5017993;28;20463;-68
2022/11/20 10:20:37;;;;;;;5.60;2.20;;;8.10;33.30;;;;;;5024306;28;20902;-68
2022/11/20 10:23:25;;;;;;;6.80;2.70;;;8.10;32.60;;;;;;5020537;28;20558;-68
2022/11/20 10:26:01;;;;;;;6.17;2.23;;;8.20;32.40;;;;;;5020469;28;20990;-68
2022/11/20 10:28:57;;;;;;;5.70;2.90;;;8.20;31.80;;;;;;5025933;28;20493;-68
2022/11/20 10:31:32;;;;;;;6.37;2.00;;;8.30;32.00;;;;;;5027837;28;20617;-68
2022/11/20 10:34:04;;;;;;;5.50;2.33;;;8.30;31.00;;;;;;5025095;28;20563;-68
2022/11/20 10:36:36;;;;;;;5.10;1.90;;;8.30;31.40;;;;;;5027420;28;21050;-68
2022/11/20 10:39:13;;;;;;;5.30;2.30;;;8.40;31.20;;;;;;5026210;28;20494;-68
2022/11/20 10:41:42;;;;;;;4.40;2.03;;;8.30;31.40;;;;;;5024913;28;20549;-68
2022/11/20 10:45:00;;;;;;;12.20;6.00;;;8.40;31.00;;;;;;5025603;28;20553;-68
2022/11/20 10:47:05;;;;;;;8.77;4.50;;;8.40;30.90;;;;;;5022455;28;20451;-68
2022/11/20 10:49:34;;;;;;;9.07;4.80;;;8.40;30.60;;;;;;5024102;28;20478;-67
2022/11/20 10:52:11;;;;;;;7.90;3.50;;;8.40;30.80;;;;;;5024894;28;20578;-68
2022/11/20 10:54:48;;;;;;;5.30;2.50;;;8.40;30.70;;;;;;5026606;28;20990;-68
2022/11/20 10:57:25;;;;;;;5.03;2.20;;;8.40;31.20;;;;;;5025978;28;20931;-68
2022/11/20 11:00:04;;;;;;;5.70;3.13;;;8.40;31.30;;;;;;5028749;28;20565;-68
2022/11/20 11:02:40;;;;;;;5.03;2.00;;;8.40;31.00;;;;;;5027857;28;20508;-68
2022/11/20 11:05:19;;;;;;;4.87;2.00;;;8.50;30.90;;;;;;5027115;28;20494;-68
2022/11/20 11:07:51;;;;;;;5.17;2.20;;;8.50;31.10;;;;;;5028037;28;20542;-68
2022/11/20 11:10:21;;;;;;;4.13;1.80;;;8.50;31.10;;;;;;5025994;28;20581;-67
2022/11/20 11:12:49;;;;;;;4.93;1.93;;;8.40;31.80;;;;;;5027918;28;20520;-68
2022/11/20 11:15:27;;;;;;;4.67;1.77;;;8.40;31.50;;;;;;5028284;28;20455;-68
2022/11/20 11:17:54;;;;;;;4.80;1.90;;;8.40;32.10;;;;;;5027043;28;20490;-68
2022/11/20 11:20:24;;;;;;;5.43;1.97;;;8.40;32.00;;;;;;5023215;28;21016;-68
2022/11/20 11:22:54;;;;;;;6.60;2.10;;;8.40;32.30;;;;;;5026012;28;20462;-68
2022/11/20 11:25:25;;;;;;;4.40;1.83;;;8.40;32.40;;;;;;5024596;28;20561;-68
2022/11/20 11:27:54;;;;;;;5.10;2.20;;;8.50;32.20;;;;;;5026555;28;20791;-68
2022/11/20 11:30:22;;;;;;;4.50;1.90;;;8.50;32.00;;;;;;5024579;28;20506;-68
2022/11/20 11:32:49;;;;;;;5.33;2.10;;;8.50;32.20;;;;;;5021320;28;20487;-67
2022/11/20 11:35:27;;;;;;;6.73;2.40;;;8.50;32.30;;;;;;5026208;28;20551;-68
2022/11/20 11:38:04;;;;;;;6.50;2.83;;;8.50;32.00;;;;;;5019952;28;20459;-67
2022/11/20 11:40:33;;;;;;;8.60;3.50;;;8.60;32.10;;;;;;5021398;28;20486;-67
2022/11/20 11:43:05;;;;;;;8.33;3.33;;;8.50;31.90;;;;;;5022451;28;20463;-67
2022/11/20 11:45:31;;;;;;;8.60;3.17;;;8.50;32.20;;;;;;5016248;28;20455;-67
2022/11/20 11:48:01;;;;;;;8.40;4.00;;;8.40;32.20;;;;;;5015992;28;20533;-67
2022/11/20 11:50:30;;;;;;;4.80;2.07;;;8.40;32.50;;;;;;5026000;28;21048;-67
2022/11/20 11:53:13;;;;;;;4.83;2.00;;;8.40;32.70;;;;;;5021821;28;20486;-67
2022/11/20 11:55:45;;;;;;;6.73;2.73;;;8.40;32.70;;;;;;5021789;28;21286;-66
2022/11/20 11:58:30;;;;;;;6.50;3.17;;;8.40;32.90;;;;;;5021683;28;21230;-67
2022/11/20 12:01:03;;;;;;;7.70;3.67;;;8.50;33.00;;;;;;5021391;28;20575;-66
2022/11/20 12:03:37;;;;;;;5.43;2.93;;;8.40;33.10;;;;;;5024318;28;20539;-67
2022/11/20 12:06:11;;;;;;;5.00;2.30;;;8.40;33.10;;;;;;5025154;28;20494;-67
2022/11/20 12:08:45;;;;;;;5.37;2.40;;;8.40;32.70;;;;;;5025313;28;20490;-66
2022/11/20 12:11:17;;;;;;;5.00;2.27;;;8.40;33.00;;;;;;5027238;28;20483;-66
2022/11/20 12:13:51;;;;;;;5.43;1.90;;;8.30;33.00;;;;;;5018349;28;20698;-67
2022/11/20 12:16:20;;;;;;;4.70;2.03;;;8.30;33.30;;;;;;5021143;28;20580;-66
2022/11/20 12:18:51;;;;;;;4.70;2.23;;;8.30;33.50;;;;;;5022288;28;20554;-67
2022/11/20 12:21:32;;;;;;;5.03;2.33;;;8.30;33.80;;;;;;5021283;28;20527;-66
2022/11/20 12:24:37;;;;;;;5.73;2.27;;;8.30;33.80;;;;;;5024741;28;20537;-66
2022/11/20 12:27:31;;;;;;;5.60;2.37;;;8.30;33.80;;;;;;5001731;28;20549;-66
2022/11/20 12:30:03;;;;;;;5.50;1.63;;;8.40;33.60;;;;;;5023552;28;20566;-67
2022/11/20 12:32:59;;;;;;;4.27;1.60;;;8.40;33.40;;;;;;5023166;28;20570;-66
2022/11/20 12:35:43;;;;;;;5.47;2.43;;;8.40;33.40;;;;;;5008228;28;20470;-67
2022/11/20 12:38:50;;;;;;;4.90;2.20;;;8.40;33.40;;;;;;5023197;28;20843;-67
2022/11/20 12:47:19;;;;;;;6.13;2.03;;;8.50;32.60;;;;;;5023301;28;20497;-68
2022/11/20 12:49:51;;;;;;;5.20;2.17;;;8.50;32.70;;;;;;5021565;28;20577;-67
2022/11/20 12:52:35;;;;;;;4.23;1.80;;;8.50;32.80;;;;;;5020833;28;20514;-66
2022/11/20 12:55:29;;;;;;;4.93;2.60;;;8.50;32.90;;;;;;5023216;28;20543;-67
2022/11/20 12:58:01;;;;;;;7.73;2.73;;;8.50;33.10;;;;;;5024178;28;21358;-66
2022/11/20 13:00:28;;;;;;;5.10;2.60;;;8.50;33.00;;;;;;5019563;28;20578;-67
2022/11/20 13:03:26;;;;;;;6.80;3.60;;;8.50;33.20;;;;;;5025228;28;20542;-67
2022/11/20 13:06:00;;;;;;;5.50;2.57;;;8.60;33.00;;;;;;5020535;28;20483;-67
2022/11/20 13:08:33;;;;;;;6.87;4.23;;;8.70;32.70;;;;;;5021909;28;20454;-67
2022/11/20 13:11:10;;;;;;;6.50;3.80;;;8.70;32.60;;;;;;5020630;28;20494;-67
2022/11/20 13:13:49;;;;;;;6.53;4.10;;;8.80;32.70;;;;;;5021618;28;20492;-67
2022/11/20 13:16:20;;;;;;;4.97;2.57;;;8.90;33.00;;;;;;5024085;28;20465;-66
2022/11/20 13:18:48;;;;;;;6.50;2.90;;;9.10;32.80;;;;;;5012735;28;20458;-67
2022/11/20 13:21:22;;;;;;;4.30;1.70;;;9.30;32.50;;;;;;5022246;28;20555;-66
2022/11/20 13:23:49;;;;;;;12.70;6.20;;;9.40;31.00;;;;;;5025524;28;20520;-67